sensor_id;sensor_type;location;lat;lon;timestamp;temperature;humidity
66373;SHT30;53168;51.146;17.120;2024-02-26T00:19:23;3.86;77.58
66373;SHT30;53168;51.146;17.120;2024-02-26T00:21:59;3.83;77.65
66373;SHT30;53168;51.146;17.120;2024-02-26T00:24:34;3.83;77.69
66373;SHT30;53168;51.146;17.120;2024-02-26T00:27:08;3.81;77.74
66373;SHT30;53168;51.146;17.120;2024-02-26T00:29:46;3.79;77.70
66373;SHT30;53168;51.146;17.120;2024-02-26T00:32:21;3.76;77.70
66373;SHT30;53168;51.146;17.120;2024-02-26T00:34:56;3.73;77.79
66373;SHT30;53168;51.146;17.120;2024-02-26T00:37:31;3.72;77.87
66373;SHT30;53168;51.146;17.120;2024-02-26T00:40:08;3.72;77.96
66373;SHT30;53168;51.146;17.120;2024-02-26T00:42:43;3.71;78.00
66373;SHT30;53168;51.146;17.120;2024-02-26T00:45:19;3.70;78.03
66373;SHT30;53168;51.146;17.120;2024-02-26T00:59:31;3.67;78.09
66373;SHT30;53168;51.146;17.120;2024-02-26T01:02:06;3.68;78.06
66373;SHT30;53168;51.146;17.120;2024-02-26T01:04:41;3.68;77.99
66373;SHT30;53168;51.146;17.120;2024-02-26T01:07:16;3.67;78.00
66373;SHT30;53168;51.146;17.120;2024-02-26T01:09:52;3.65;78.00
66373;SHT30;53168;51.146;17.120;2024-02-26T01:12:27;3.62;78.01
66373;SHT30;53168;51.146;17.120;2024-02-26T01:15:05;3.58;78.02
66373;SHT30;53168;51.146;17.120;2024-02-26T01:17:41;3.54;78.05
66373;SHT30;53168;51.146;17.120;2024-02-26T01:20:16;3.53;78.10
66373;SHT30;53168;51.146;17.120;2024-02-26T01:22:52;3.50;78.13
66373;SHT30;53168;51.146;17.120;2024-02-26T01:25:26;3.43;78.10
66373;SHT30;53168;51.146;17.120;2024-02-26T01:28:03;3.36;78.12
66373;SHT30;53168;51.146;17.120;2024-02-26T01:30:38;3.33;78.27
66373;SHT30;53168;51.146;17.120;2024-02-26T01:33:13;3.30;78.39
66373;SHT30;53168;51.146;17.120;2024-02-26T01:35:49;3.27;78.40
66373;SHT30;53168;51.146;17.120;2024-02-26T01:38:25;3.25;78.47
66373;SHT30;53168;51.146;17.120;2024-02-26T01:41:01;3.23;78.58
66373;SHT30;53168;51.146;17.120;2024-02-26T01:43:36;3.23;78.64
66373;SHT30;53168;51.146;17.120;2024-02-26T01:46:14;3.22;78.75
66373;SHT30;53168;51.146;17.120;2024-02-26T01:48:53;3.21;78.80
66373;SHT30;53168;51.146;17.120;2024-02-26T01:51:29;3.17;78.80
66373;SHT30;53168;51.146;17.120;2024-02-26T01:54:09;3.14;78.89
66373;SHT30;53168;51.146;17.120;2024-02-26T01:56:44;3.10;78.90
66373;SHT30;53168;51.146;17.120;2024-02-26T01:59:21;3.06;78.98
66373;SHT30;53168;51.146;17.120;2024-02-26T02:02:00;3.03;79.07
66373;SHT30;53168;51.146;17.120;2024-02-26T02:04:38;2.98;79.10
66373;SHT30;53168;51.146;17.120;2024-02-26T02:07:14;2.95;79.15
66373;SHT30;53168;51.146;17.120;2024-02-26T02:09:49;2.89;79.26
66373;SHT30;53168;51.146;17.120;2024-02-26T02:12:26;2.87;79.35
66373;SHT30;53168;51.146;17.120;2024-02-26T02:15:05;2.85;79.49
66373;SHT30;53168;51.146;17.120;2024-02-26T02:17:41;2.84;79.59
66373;SHT30;53168;51.146;17.120;2024-02-26T02:20:40;2.83;79.60
66373;SHT30;53168;51.146;17.120;2024-02-26T02:23:15;2.82;79.63
66373;SHT30;53168;51.146;17.120;2024-02-26T02:25:50;2.84;79.70
66373;SHT30;53168;51.146;17.120;2024-02-26T02:28:29;2.84;79.71
66373;SHT30;53168;51.146;17.120;2024-02-26T02:31:05;2.85;79.74
66373;SHT30;53168;51.146;17.120;2024-02-26T02:33:41;2.87;79.80
66373;SHT30;53168;51.146;17.120;2024-02-26T02:36:16;2.88;79.82
66373;SHT30;53168;51.146;17.120;2024-02-26T02:38:55;2.88;79.84
66373;SHT30;53168;51.146;17.120;2024-02-26T02:41:30;2.84;79.80
66373;SHT30;53168;51.146;17.120;2024-02-26T02:44:05;2.78;79.80
66373;SHT30;53168;51.146;17.120;2024-02-26T02:46:40;2.71;79.81
66373;SHT30;53168;51.146;17.120;2024-02-26T02:49:15;2.67;79.90
66373;SHT30;53168;51.146;17.120;2024-02-26T02:51:50;2.62;79.93
66373;SHT30;53168;51.146;17.120;2024-02-26T02:54:27;2.60;80.05
66373;SHT30;53168;51.146;17.120;2024-02-26T02:57:02;2.58;80.09
66373;SHT30;53168;51.146;17.120;2024-02-26T02:59:39;2.57;80.17
66373;SHT30;53168;51.146;17.120;2024-02-26T03:02:14;2.57;80.28
66373;SHT30;53168;51.146;17.120;2024-02-26T03:04:49;2.57;80.40
66373;SHT30;53168;51.146;17.120;2024-02-26T03:07:25;2.59;80.50
66373;SHT30;53168;51.146;17.120;2024-02-26T03:10:01;2.60;80.50
66373;SHT30;53168;51.146;17.120;2024-02-26T03:12:36;2.62;80.53
66373;SHT30;53168;51.146;17.120;2024-02-26T03:15:13;2.64;80.63
66373;SHT30;53168;51.146;17.120;2024-02-26T03:17:49;2.69;80.70
66373;SHT30;53168;51.146;17.120;2024-02-26T03:20:24;2.71;80.73
66373;SHT30;53168;51.146;17.120;2024-02-26T03:23:03;2.76;80.73
66373;SHT30;53168;51.146;17.120;2024-02-26T03:25:38;2.79;80.70
66373;SHT30;53168;51.146;17.120;2024-02-26T03:28:14;2.81;80.75
66373;SHT30;53168;51.146;17.120;2024-02-26T03:30:49;2.86;80.80
66373;SHT30;53168;51.146;17.120;2024-02-26T03:33:24;2.89;80.82
66373;SHT30;53168;51.146;17.120;2024-02-26T03:36:02;2.91;80.90
66373;SHT30;53168;51.146;17.120;2024-02-26T03:38:39;2.95;80.90
66373;SHT30;53168;51.146;17.120;2024-02-26T03:41:15;2.97;80.87
66373;SHT30;53168;51.146;17.120;2024-02-26T03:43:50;3.00;80.86
66373;SHT30;53168;51.146;17.120;2024-02-26T03:46:25;3.03;80.87
66373;SHT30;53168;51.146;17.120;2024-02-26T03:49:01;3.05;80.89
66373;SHT30;53168;51.146;17.120;2024-02-26T03:51:37;3.08;80.86
66373;SHT30;53168;51.146;17.120;2024-02-26T03:54:11;3.11;80.90
66373;SHT30;53168;51.146;17.120;2024-02-26T03:56:46;3.13;80.89
66373;SHT30;53168;51.146;17.120;2024-02-26T03:59:21;3.12;80.87
66373;SHT30;53168;51.146;17.120;2024-02-26T04:01:58;3.11;80.90
66373;SHT30;53168;51.146;17.120;2024-02-26T04:04:38;3.08;80.90
66373;SHT30;53168;51.146;17.120;2024-02-26T04:07:14;3.07;80.91
66373;SHT30;53168;51.146;17.120;2024-02-26T04:09:49;3.04;80.94
66373;SHT30;53168;51.146;17.120;2024-02-26T04:12:24;3.02;81.00
66373;SHT30;53168;51.146;17.120;2024-02-26T04:14:59;2.99;81.00
66373;SHT30;53168;51.146;17.120;2024-02-26T04:17:34;2.97;81.01
66373;SHT30;53168;51.146;17.120;2024-02-26T04:23:00;2.93;81.10
66373;SHT30;53168;51.146;17.120;2024-02-26T04:25:32;2.91;81.19
66373;SHT30;53168;51.146;17.120;2024-02-26T04:28:04;2.90;81.20
66373;SHT30;53168;51.146;17.120;2024-02-26T04:30:35;2.89;81.23
66373;SHT30;53168;51.146;17.120;2024-02-26T04:33:07;2.89;81.25
66373;SHT30;53168;51.146;17.120;2024-02-26T04:35:38;2.88;81.30
66373;SHT30;53168;51.146;17.120;2024-02-26T04:38:09;2.88;81.29
66373;SHT30;53168;51.146;17.120;2024-02-26T04:40:40;2.86;81.26
66373;SHT30;53168;51.146;17.120;2024-02-26T04:43:12;2.85;81.27
66373;SHT30;53168;51.146;17.120;2024-02-26T04:45:43;2.84;81.30
66373;SHT30;53168;51.146;17.120;2024-02-26T04:48:14;2.82;81.31
66373;SHT30;53168;51.146;17.120;2024-02-26T04:50:45;2.82;81.39
66373;SHT30;53168;51.146;17.120;2024-02-26T04:53:16;2.82;81.40
66373;SHT30;53168;51.146;17.120;2024-02-26T04:55:47;2.82;81.47
66373;SHT30;53168;51.146;17.120;2024-02-26T04:58:18;2.83;81.50
66373;SHT30;53168;51.146;17.120;2024-02-26T05:00:49;2.82;81.54
66373;SHT30;53168;51.146;17.120;2024-02-26T05:03:20;2.83;81.60
66373;SHT30;53168;51.146;17.120;2024-02-26T05:05:51;2.84;81.61
66373;SHT30;53168;51.146;17.120;2024-02-26T05:08:22;2.86;81.71
66373;SHT30;53168;51.146;17.120;2024-02-26T05:10:53;2.88;81.70
66373;SHT30;53168;51.146;17.120;2024-02-26T05:13:24;2.88;81.72
66373;SHT30;53168;51.146;17.120;2024-02-26T05:15:55;2.88;81.70
66373;SHT30;53168;51.146;17.120;2024-02-26T05:18:27;2.88;81.70
66373;SHT30;53168;51.146;17.120;2024-02-26T05:20:58;2.88;81.73
66373;SHT30;53168;51.146;17.120;2024-02-26T05:23:31;2.90;81.80
66373;SHT30;53168;51.146;17.120;2024-02-26T05:26:04;2.92;81.84
66373;SHT30;53168;51.146;17.120;2024-02-26T05:28:37;2.96;81.89
66373;SHT30;53168;51.146;17.120;2024-02-26T05:31:14;2.99;81.94
66373;SHT30;53168;51.146;17.120;2024-02-26T05:33:45;3.02;81.98
66373;SHT30;53168;51.146;17.120;2024-02-26T05:36:21;3.05;82.00
66373;SHT30;53168;51.146;17.120;2024-02-26T05:38:53;3.09;82.00
66373;SHT30;53168;51.146;17.120;2024-02-26T05:41:25;3.11;82.04
66373;SHT30;53168;51.146;17.120;2024-02-26T05:43:56;3.13;82.07
66373;SHT30;53168;51.146;17.120;2024-02-26T05:46:28;3.15;82.10
66373;SHT30;53168;51.146;17.120;2024-02-26T05:48:59;3.15;82.10
66373;SHT30;53168;51.146;17.120;2024-02-26T05:51:36;3.15;82.03
66373;SHT30;53168;51.146;17.120;2024-02-26T05:54:09;3.16;82.06
66373;SHT30;53168;51.146;17.120;2024-02-26T05:56:43;3.15;82.05
66373;SHT30;53168;51.146;17.120;2024-02-26T05:59:33;3.15;82.01
66373;SHT30;53168;51.146;17.120;2024-02-26T06:02:07;3.17;82.02
66373;SHT30;53168;51.146;17.120;2024-02-26T06:04:40;3.17;82.08
66373;SHT30;53168;51.146;17.120;2024-02-26T06:07:11;3.19;82.08
66373;SHT30;53168;51.146;17.120;2024-02-26T06:09:42;3.21;82.08
66373;SHT30;53168;51.146;17.120;2024-02-26T06:12:34;3.25;82.11
66373;SHT30;53168;51.146;17.120;2024-02-26T06:15:12;3.29;82.10
66373;SHT30;53168;51.146;17.120;2024-02-26T06:17:44;3.34;82.08
66373;SHT30;53168;51.146;17.120;2024-02-26T06:20:21;3.40;82.09
66373;SHT30;53168;51.146;17.120;2024-02-26T06:23:18;3.48;82.12
66373;SHT30;53168;51.146;17.120;2024-02-26T06:26:08;3.56;82.17
66373;SHT30;53168;51.146;17.120;2024-02-26T06:28:43;3.68;82.26
66373;SHT30;53168;51.146;17.120;2024-02-26T06:31:15;3.81;82.35
66373;SHT30;53168;51.146;17.120;2024-02-26T06:33:47;3.92;82.30
66373;SHT30;53168;51.146;17.120;2024-02-26T06:36:19;4.06;82.30
66373;SHT30;53168;51.146;17.120;2024-02-26T06:38:52;4.16;82.21
66373;SHT30;53168;51.146;17.120;2024-02-26T06:41:24;4.27;82.20
66373;SHT30;53168;51.146;17.120;2024-02-26T06:43:57;4.39;82.22
66373;SHT30;53168;51.146;17.120;2024-02-26T06:46:28;4.48;82.15
66373;SHT30;53168;51.146;17.120;2024-02-26T06:48:59;4.56;82.10
66373;SHT30;53168;51.146;17.120;2024-02-26T06:51:31;4.64;82.06
66373;SHT30;53168;51.146;17.120;2024-02-26T06:54:02;4.70;82.02
66373;SHT30;53168;51.146;17.120;2024-02-26T06:56:34;4.79;81.99
66373;SHT30;53168;51.146;17.120;2024-02-26T06:59:07;4.86;81.91
66373;SHT30;53168;51.146;17.120;2024-02-26T07:01:41;4.93;81.89
66373;SHT30;53168;51.146;17.120;2024-02-26T07:04:12;5.00;81.81
66373;SHT30;53168;51.146;17.120;2024-02-26T07:06:43;5.09;81.73
66373;SHT30;53168;51.146;17.120;2024-02-26T07:09:15;5.21;81.69
66373;SHT30;53168;51.146;17.120;2024-02-26T07:11:47;5.31;81.62
66373;SHT30;53168;51.146;17.120;2024-02-26T07:14:18;5.43;81.60
66373;SHT30;53168;51.146;17.120;2024-02-26T07:16:49;5.55;81.51
66373;SHT30;53168;51.146;17.120;2024-02-26T07:19:22;5.67;81.46
66373;SHT30;53168;51.146;17.120;2024-02-26T07:21:53;5.78;81.33
66373;SHT30;53168;51.146;17.120;2024-02-26T07:24:27;5.88;81.22
66373;SHT30;53168;51.146;17.120;2024-02-26T07:27:28;5.99;81.13
66373;SHT30;53168;51.146;17.120;2024-02-26T07:30:01;6.14;81.09
66373;SHT30;53168;51.146;17.120;2024-02-26T07:32:38;6.27;80.96
66373;SHT30;53168;51.146;17.120;2024-02-26T07:35:15;6.36;80.83
66373;SHT30;53168;51.146;17.120;2024-02-26T07:37:48;6.46;80.70
66373;SHT30;53168;51.146;17.120;2024-02-26T07:40:20;6.59;80.64
66373;SHT30;53168;51.146;17.120;2024-02-26T07:42:51;6.74;80.54
66373;SHT30;53168;51.146;17.120;2024-02-26T07:45:23;6.86;80.41
66373;SHT30;53168;51.146;17.120;2024-02-26T07:47:54;6.98;80.28
66373;SHT30;53168;51.146;17.120;2024-02-26T07:50:25;7.10;80.15
66373;SHT30;53168;51.146;17.120;2024-02-26T07:52:55;7.19;80.03
66373;SHT30;53168;51.146;17.120;2024-02-26T07:55:27;7.30;79.96
66373;SHT30;53168;51.146;17.120;2024-02-26T07:57:58;7.41;79.80
66373;SHT30;53168;51.146;17.120;2024-02-26T08:00:29;7.54;79.69
66373;SHT30;53168;51.146;17.120;2024-02-26T08:03:00;7.68;79.54
66373;SHT30;53168;51.146;17.120;2024-02-26T08:05:32;7.83;79.31
66373;SHT30;53168;51.146;17.120;2024-02-26T08:08:03;7.99;79.07
66373;SHT30;53168;51.146;17.120;2024-02-26T08:10:35;8.14;78.93
66373;SHT30;53168;51.146;17.120;2024-02-26T08:13:06;8.30;78.67
66373;SHT30;53168;51.146;17.120;2024-02-26T08:15:40;8.43;78.57
66373;SHT30;53168;51.146;17.120;2024-02-26T08:18:13;8.60;78.41
66373;SHT30;53168;51.146;17.120;2024-02-26T08:20:45;8.74;78.11
66373;SHT30;53168;51.146;17.120;2024-02-26T08:23:18;8.86;77.62
66373;SHT30;53168;51.146;17.120;2024-02-26T08:25:50;9.01;77.45
66373;SHT30;53168;51.146;17.120;2024-02-26T08:28:21;9.16;77.28
66373;SHT30;53168;51.146;17.120;2024-02-26T08:30:54;9.30;76.92
66373;SHT30;53168;51.146;17.120;2024-02-26T08:33:26;9.44;76.66
66373;SHT30;53168;51.146;17.120;2024-02-26T08:35:58;9.60;76.41
66373;SHT30;53168;51.146;17.120;2024-02-26T08:38:34;9.76;76.07
66373;SHT30;53168;51.146;17.120;2024-02-26T08:41:05;9.92;75.82
66373;SHT30;53168;51.146;17.120;2024-02-26T08:43:36;10.07;75.59
66373;SHT30;53168;51.146;17.120;2024-02-26T08:46:11;10.23;75.33
66373;SHT30;53168;51.146;17.120;2024-02-26T08:48:43;10.40;74.96
66373;SHT30;53168;51.146;17.120;2024-02-26T08:51:15;10.56;74.87
66373;SHT30;53168;51.146;17.120;2024-02-26T08:53:47;10.70;74.56
66373;SHT30;53168;51.146;17.120;2024-02-26T08:56:19;10.85;74.39
66373;SHT30;53168;51.146;17.120;2024-02-26T08:58:51;11.00;74.10
66373;SHT30;53168;51.146;17.120;2024-02-26T09:01:25;11.12;73.26
66373;SHT30;53168;51.146;17.120;2024-02-26T09:03:57;11.21;73.09
66373;SHT30;53168;51.146;17.120;2024-02-26T09:06:28;11.31;72.82
66373;SHT30;53168;51.146;17.120;2024-02-26T09:09:00;11.49;72.88
66373;SHT30;53168;51.146;17.120;2024-02-26T09:11:33;11.64;72.43
66373;SHT30;53168;51.146;17.120;2024-02-26T09:14:06;11.74;71.97
66373;SHT30;53168;51.146;17.120;2024-02-26T09:16:37;11.86;72.02
66373;SHT30;53168;51.146;17.120;2024-02-26T09:19:08;11.99;71.31
66373;SHT30;53168;51.146;17.120;2024-02-26T09:21:44;12.04;70.56
66373;SHT30;53168;51.146;17.120;2024-02-26T09:24:15;12.05;69.63
66373;SHT30;53168;51.146;17.120;2024-02-26T09:26:48;12.07;69.82
66373;SHT30;53168;51.146;17.120;2024-02-26T09:29:29;12.18;69.94
66373;SHT30;53168;51.146;17.120;2024-02-26T09:32:08;12.35;70.08
66373;SHT30;53168;51.146;17.120;2024-02-26T09:34:41;12.52;69.62
66373;SHT30;53168;51.146;17.120;2024-02-26T09:37:13;12.64;69.30
66373;SHT30;53168;51.146;17.120;2024-02-26T09:39:51;12.73;68.59
66373;SHT30;53168;51.146;17.120;2024-02-26T09:42:26;12.79;68.32
66373;SHT30;53168;51.146;17.120;2024-02-26T09:45:01;12.85;68.38
66373;SHT30;53168;51.146;17.120;2024-02-26T09:47:39;12.92;67.98
66373;SHT30;53168;51.146;17.120;2024-02-26T09:50:12;12.98;67.37
66373;SHT30;53168;51.146;17.120;2024-02-26T09:52:52;13.02;67.31
66373;SHT30;53168;51.146;17.120;2024-02-26T09:55:28;13.11;66.83
66373;SHT30;53168;51.146;17.120;2024-02-26T09:58:00;13.17;66.77
66373;SHT30;53168;51.146;17.120;2024-02-26T10:00:39;13.28;66.57
66373;SHT30;53168;51.146;17.120;2024-02-26T10:03:15;13.36;66.13
66373;SHT30;53168;51.146;17.120;2024-02-26T10:05:51;13.51;66.35
66373;SHT30;53168;51.146;17.120;2024-02-26T10:08:26;13.68;65.88
66373;SHT30;53168;51.146;17.120;2024-02-26T10:10:57;13.75;65.41
66373;SHT30;53168;51.146;17.120;2024-02-26T10:13:32;13.82;65.34
66373;SHT30;53168;51.146;17.120;2024-02-26T10:16:09;13.90;64.45
66373;SHT30;53168;51.146;17.120;2024-02-26T10:18:47;13.97;64.61
66373;SHT30;53168;51.146;17.120;2024-02-26T10:21:28;14.05;63.84
66373;SHT30;53168;51.146;17.120;2024-02-26T10:24:00;14.02;63.22
66373;SHT30;53168;51.146;17.120;2024-02-26T10:26:33;14.02;63.52
66373;SHT30;53168;51.146;17.120;2024-02-26T10:29:04;14.06;63.39
66373;SHT30;53168;51.146;17.120;2024-02-26T10:31:38;14.13;63.17
66373;SHT30;53168;51.146;17.120;2024-02-26T10:34:17;14.12;62.78
66373;SHT30;53168;51.146;17.120;2024-02-26T10:36:49;14.10;62.41
66373;SHT30;53168;51.146;17.120;2024-02-26T10:39:23;14.07;62.38
66373;SHT30;53168;51.146;17.120;2024-02-26T10:41:56;14.02;62.35
66373;SHT30;53168;51.146;17.120;2024-02-26T10:45:06;14.10;62.31
66373;SHT30;53168;51.146;17.120;2024-02-26T10:47:42;14.25;62.24
66373;SHT30;53168;51.146;17.120;2024-02-26T10:50:16;14.48;62.49
66373;SHT30;53168;51.146;17.120;2024-02-26T10:52:48;14.98;62.04
66373;SHT30;53168;51.146;17.120;2024-02-26T10:55:23;15.34;61.37
66373;SHT30;53168;51.146;17.120;2024-02-26T10:57:56;15.30;60.83
66373;SHT30;53168;51.146;17.120;2024-02-26T11:00:27;15.16;60.64
66373;SHT30;53168;51.146;17.120;2024-02-26T11:03:00;15.06;60.77
66373;SHT30;53168;51.146;17.120;2024-02-26T11:05:33;15.05;61.06
66373;SHT30;53168;51.146;17.120;2024-02-26T11:08:06;15.08;61.01
66373;SHT30;53168;51.146;17.120;2024-02-26T11:10:37;15.11;60.94
66373;SHT30;53168;51.146;17.120;2024-02-26T11:13:14;15.11;59.99
66373;SHT30;53168;51.146;17.120;2024-02-26T11:15:48;15.08;60.31
66373;SHT30;53168;51.146;17.120;2024-02-26T11:18:20;15.15;60.20
66373;SHT30;53168;51.146;17.120;2024-02-26T11:20:55;15.14;59.71
66373;SHT30;53168;51.146;17.120;2024-02-26T11:23:26;15.03;59.40
66373;SHT30;53168;51.146;17.120;2024-02-26T11:26:18;14.95;59.53
66373;SHT30;53168;51.146;17.120;2024-02-26T11:28:54;14.95;59.55
66373;SHT30;53168;51.146;17.120;2024-02-26T11:31:27;15.05;59.53
66373;SHT30;53168;51.146;17.120;2024-02-26T11:34:02;15.14;59.68
66373;SHT30;53168;51.146;17.120;2024-02-26T11:36:35;15.25;58.90
66373;SHT30;53168;51.146;17.120;2024-02-26T11:39:12;15.29;58.86
66373;SHT30;53168;51.146;17.120;2024-02-26T11:41:46;15.36;58.82
66373;SHT30;53168;51.146;17.120;2024-02-26T11:44:29;15.41;58.51
66373;SHT30;53168;51.146;17.120;2024-02-26T11:47:11;15.49;58.36
66373;SHT30;53168;51.146;17.120;2024-02-26T11:49:42;15.61;58.20
66373;SHT30;53168;51.146;17.120;2024-02-26T11:52:15;15.78;57.49
66373;SHT30;53168;51.146;17.120;2024-02-26T11:54:49;15.88;57.63
66373;SHT30;53168;51.146;17.120;2024-02-26T11:57:28;15.91;57.97
66373;SHT30;53168;51.146;17.120;2024-02-26T12:00:13;15.80;58.03
66373;SHT30;53168;51.146;17.120;2024-02-26T12:02:49;15.76;58.09
66373;SHT30;53168;51.146;17.120;2024-02-26T12:05:32;15.99;57.61
66373;SHT30;53168;51.146;17.120;2024-02-26T12:08:08;16.33;56.49
66373;SHT30;53168;51.146;17.120;2024-02-26T12:10:40;16.48;56.04
66373;SHT30;53168;51.146;17.120;2024-02-26T12:13:14;16.59;55.86
66373;SHT30;53168;51.146;17.120;2024-02-26T12:15:57;16.84;55.70
66373;SHT30;53168;51.146;17.120;2024-02-26T12:18:30;17.16;54.85
66373;SHT30;53168;51.146;17.120;2024-02-26T12:21:03;17.48;54.66
66373;SHT30;53168;51.146;17.120;2024-02-26T12:23:35;17.73;54.28
66373;SHT30;53168;51.146;17.120;2024-02-26T12:26:05;17.95;54.28
66373;SHT30;53168;51.146;17.120;2024-02-26T12:28:42;18.15;52.80
66373;SHT30;53168;51.146;17.120;2024-02-26T12:31:55;18.38;53.07
66373;SHT30;53168;51.146;17.120;2024-02-26T12:34:30;18.47;52.00
66373;SHT30;53168;51.146;17.120;2024-02-26T12:37:06;18.22;51.77
66373;SHT30;53168;51.146;17.120;2024-02-26T12:39:41;17.99;52.24
66373;SHT30;53168;51.146;17.120;2024-02-26T12:42:19;17.58;52.22
66373;SHT30;53168;51.146;17.120;2024-02-26T12:44:58;17.06;52.24
66373;SHT30;53168;51.146;17.120;2024-02-26T12:47:33;16.55;52.64
66373;SHT30;53168;51.146;17.120;2024-02-26T12:50:12;16.42;53.40
66373;SHT30;53168;51.146;17.120;2024-02-26T12:52:47;16.30;53.46
66373;SHT30;53168;51.146;17.120;2024-02-26T12:55:24;16.13;53.78
66373;SHT30;53168;51.146;17.120;2024-02-26T12:58:02;15.99;53.52
66373;SHT30;53168;51.146;17.120;2024-02-26T13:00:38;15.86;53.68
66373;SHT30;53168;51.146;17.120;2024-02-26T13:03:15;15.84;53.65
66373;SHT30;53168;51.146;17.120;2024-02-26T13:06:00;15.91;53.51
66373;SHT30;53168;51.146;17.120;2024-02-26T13:08:49;16.20;53.59
66373;SHT30;53168;51.146;17.120;2024-02-26T13:11:34;16.53;53.13
66373;SHT30;53168;51.146;17.120;2024-02-26T13:14:23;16.34;52.95
66373;SHT30;53168;51.146;17.120;2024-02-26T13:17:06;16.05;53.27
66373;SHT30;53168;51.146;17.120;2024-02-26T13:19:58;16.07;53.50
66373;SHT30;53168;51.146;17.120;2024-02-26T13:22:42;16.10;53.79
66373;SHT30;53168;51.146;17.120;2024-02-26T13:25:23;16.17;53.14
66373;SHT30;53168;51.146;17.120;2024-02-26T13:28:08;16.24;52.79
66373;SHT30;53168;51.146;17.120;2024-02-26T13:30:59;16.15;52.88
66373;SHT30;53168;51.146;17.120;2024-02-26T13:39:25;16.33;53.14
66373;SHT30;53168;51.146;17.120;2024-02-26T13:42:02;16.46;52.78
66373;SHT30;53168;51.146;17.120;2024-02-26T13:44:37;16.42;53.07
66373;SHT30;53168;51.146;17.120;2024-02-26T13:47:14;16.50;52.96
66373;SHT30;53168;51.146;17.120;2024-02-26T13:49:50;16.73;52.63
66373;SHT30;53168;51.146;17.120;2024-02-26T13:52:26;16.97;52.43
66373;SHT30;53168;51.146;17.120;2024-02-26T13:55:08;16.99;52.41
66373;SHT30;53168;51.146;17.120;2024-02-26T13:57:43;16.70;52.46
66373;SHT30;53168;51.146;17.120;2024-02-26T14:00:24;16.35;52.69
66373;SHT30;53168;51.146;17.120;2024-02-26T14:03:01;15.99;52.89
66373;SHT30;53168;51.146;17.120;2024-02-26T14:05:39;15.64;53.16
66373;SHT30;53168;51.146;17.120;2024-02-26T14:08:18;15.37;53.47
66373;SHT30;53168;51.146;17.120;2024-02-26T14:10:54;15.13;53.60
66373;SHT30;53168;51.146;17.120;2024-02-26T14:13:30;14.89;53.93
66373;SHT30;53168;51.146;17.120;2024-02-26T14:16:10;14.68;54.26
66373;SHT30;53168;51.146;17.120;2024-02-26T14:18:46;14.54;54.56
66373;SHT30;53168;51.146;17.120;2024-02-26T14:21:21;14.43;54.70
66373;SHT30;53168;51.146;17.120;2024-02-26T14:23:57;14.32;54.92
66373;SHT30;53168;51.146;17.120;2024-02-26T14:26:32;14.22;55.20
66373;SHT30;53168;51.146;17.120;2024-02-26T14:29:07;14.12;55.22
66373;SHT30;53168;51.146;17.120;2024-02-26T14:31:41;14.05;55.36
66373;SHT30;53168;51.146;17.120;2024-02-26T14:34:18;13.99;55.55
66373;SHT30;53168;51.146;17.120;2024-02-26T14:36:53;13.92;55.69
66373;SHT30;53168;51.146;17.120;2024-02-26T14:39:28;13.87;55.71
66373;SHT30;53168;51.146;17.120;2024-02-26T14:42:03;13.81;55.84
66373;SHT30;53168;51.146;17.120;2024-02-26T14:44:39;13.75;55.95
66373;SHT30;53168;51.146;17.120;2024-02-26T14:47:14;13.71;56.01
66373;SHT30;53168;51.146;17.120;2024-02-26T14:49:48;13.67;56.16
66373;SHT30;53168;51.146;17.120;2024-02-26T14:52:23;13.65;56.29
66373;SHT30;53168;51.146;17.120;2024-02-26T14:54:58;13.61;56.45
66373;SHT30;53168;51.146;17.120;2024-02-26T14:57:33;13.57;56.50
66373;SHT30;53168;51.146;17.120;2024-02-26T15:00:11;13.56;56.65
66373;SHT30;53168;51.146;17.120;2024-02-26T15:02:47;13.55;56.85
66373;SHT30;53168;51.146;17.120;2024-02-26T15:05:23;13.55;56.90
66373;SHT30;53168;51.146;17.120;2024-02-26T15:08:00;13.56;57.05
66373;SHT30;53168;51.146;17.120;2024-02-26T15:10:35;13.56;57.04
66373;SHT30;53168;51.146;17.120;2024-02-26T15:13:10;13.56;57.04
66373;SHT30;53168;51.146;17.120;2024-02-26T15:15:45;13.55;57.08
66373;SHT30;53168;51.146;17.120;2024-02-26T15:18:56;13.54;57.12
66373;SHT30;53168;51.146;17.120;2024-02-26T15:21:44;13.54;57.25
66373;SHT30;53168;51.146;17.120;2024-02-26T15:24:20;13.53;57.32
66373;SHT30;53168;51.146;17.120;2024-02-26T15:26:56;13.52;57.34
66373;SHT30;53168;51.146;17.120;2024-02-26T15:29:31;13.48;57.43
66373;SHT30;53168;51.146;17.120;2024-02-26T15:32:07;13.45;57.53
66373;SHT30;53168;51.146;17.120;2024-02-26T15:34:43;13.42;57.68
66373;SHT30;53168;51.146;17.120;2024-02-26T15:37:18;13.37;57.73
66373;SHT30;53168;51.146;17.120;2024-02-26T15:39:54;13.34;57.71
66373;SHT30;53168;51.146;17.120;2024-02-26T15:42:28;13.31;57.73
66373;SHT30;53168;51.146;17.120;2024-02-26T15:45:05;13.29;57.80
66373;SHT30;53168;51.146;17.120;2024-02-26T15:47:44;13.27;57.99
66373;SHT30;53168;51.146;17.120;2024-02-26T15:50:21;13.23;58.11
66373;SHT30;53168;51.146;17.120;2024-02-26T15:52:56;13.20;58.21
66373;SHT30;53168;51.146;17.120;2024-02-26T15:55:31;13.18;58.39
66373;SHT30;53168;51.146;17.120;2024-02-26T15:58:09;13.13;58.49
66373;SHT30;53168;51.146;17.120;2024-02-26T16:00:44;13.10;58.58
66373;SHT30;53168;51.146;17.120;2024-02-26T16:03:40;13.07;58.73
66373;SHT30;53168;51.146;17.120;2024-02-26T16:06:31;13.03;58.83
66373;SHT30;53168;51.146;17.120;2024-02-26T16:09:09;12.99;58.89
66373;SHT30;53168;51.146;17.120;2024-02-26T16:11:44;12.95;59.00
66373;SHT30;53168;51.146;17.120;2024-02-26T16:14:35;12.93;59.07
66373;SHT30;53168;51.146;17.120;2024-02-26T16:17:23;12.88;59.17
66373;SHT30;53168;51.146;17.120;2024-02-26T16:22:04;12.83;59.30
66373;SHT30;53168;51.146;17.120;2024-02-26T16:24:39;12.82;59.32
66373;SHT30;53168;51.146;17.120;2024-02-26T16:27:14;12.79;59.38
66373;SHT30;53168;51.146;17.120;2024-02-26T16:29:49;12.77;59.42
66373;SHT30;53168;51.146;17.120;2024-02-26T16:32:30;12.74;59.50
66373;SHT30;53168;51.146;17.120;2024-02-26T16:35:06;12.72;59.60
66373;SHT30;53168;51.146;17.120;2024-02-26T16:37:43;12.68;59.68
66373;SHT30;53168;51.146;17.120;2024-02-26T16:40:18;12.64;59.73
66373;SHT30;53168;51.146;17.120;2024-02-26T16:42:53;12.61;59.81
66373;SHT30;53168;51.146;17.120;2024-02-26T16:45:33;12.57;59.92
66373;SHT30;53168;51.146;17.120;2024-02-26T16:48:14;12.53;60.07
66373;SHT30;53168;51.146;17.120;2024-02-26T16:50:49;12.49;60.17
66373;SHT30;53168;51.146;17.120;2024-02-26T16:53:25;12.46;60.30
66373;SHT30;53168;51.146;17.120;2024-02-26T16:56:00;12.44;60.39